createdAt,value
2018-10-17T00:00:56.135Z,71.49
2018-10-17T00:01:56.080Z,72.00
2018-10-17T00:02:56.072Z,72.92
2018-10-17T00:03:56.076Z,73.03
2018-10-17T00:04:56.076Z,73.03
2018-10-17T00:05:56.061Z,73.23
2018-10-17T00:06:56.049Z,73.16
2018-10-17T00:07:56.017Z,72.96
2018-10-17T00:08:56.022Z,72.41
2018-10-17T00:09:56.015Z,72.75
2018-10-17T00:10:56.018Z,73.06
2018-10-17T00:11:55.988Z,72.31
2018-10-17T00:12:55.964Z,72.41
2018-10-17T00:13:55.948Z,72.31
2018-10-17T00:14:55.943Z,72.00
2018-10-17T00:15:55.929Z,71.59
2018-10-17T00:16:55.980Z,71.29
2018-10-17T00:17:55.919Z,70.95
2018-10-17T00:18:55.948Z,70.98
2018-10-17T00:19:55.902Z,71.15
2018-10-17T00:20:55.876Z,70.43
2018-10-17T00:21:55.870Z,70.64
2018-10-17T00:22:55.886Z,70.98
2018-10-17T00:23:55.842Z,71.29
2018-10-17T00:24:55.851Z,71.29
2018-10-17T00:25:55.840Z,71.32
2018-10-17T00:26:55.832Z,71.42
2018-10-17T00:27:55.815Z,71.53
2018-10-17T00:28:55.814Z,72.45
2018-10-17T00:29:55.787Z,73.16
2018-10-17T00:30:55.780Z,73.27
2018-10-17T00:31:55.755Z,73.61
2018-10-17T00:32:55.765Z,74.22
2018-10-17T00:33:55.743Z,74.32
2018-10-17T00:34:55.730Z,74.43
2018-10-17T00:35:55.735Z,74.05
2018-10-17T00:36:55.751Z,74.22
2018-10-17T00:37:55.701Z,74.36
2018-10-17T00:38:55.681Z,74.22
2018-10-17T00:39:55.702Z,74.53
2018-10-17T00:40:55.670Z,74.46
2018-10-17T00:41:55.647Z,73.81
2018-10-17T00:42:55.710Z,74.56
2018-10-17T00:43:55.637Z,74.56
2018-10-17T00:44:55.637Z,74.87
2018-10-17T00:45:55.617Z,74.66
2018-10-17T00:46:55.647Z,74.36
2018-10-17T00:47:55.588Z,74.26
2018-10-17T00:48:55.608Z,73.64
2018-10-17T00:49:55.562Z,73.74
2018-10-17T00:50:55.579Z,73.44
2018-10-17T00:51:55.560Z,73.33
2018-10-17T00:52:55.572Z,73.95
2018-10-17T00:53:55.532Z,73.95
2018-10-17T00:54:55.569Z,74.15
2018-10-17T00:55:55.497Z,73.64
2018-10-17T00:56:55.495Z,74.15
2018-10-17T00:57:55.478Z,73.68
2018-10-17T00:58:55.566Z,73.23
2018-10-17T00:59:55.458Z,73.13
2018-10-17T01:00:55.452Z,73.27
2018-10-17T01:01:55.448Z,73.47
2018-10-17T01:02:55.431Z,73.16
2018-10-17T01:03:55.415Z,73.36
2018-10-17T01:04:55.456Z,73.57
2018-10-17T01:05:55.390Z,72.75
2018-10-17T01:06:55.461Z,73.23
2018-10-17T01:07:55.384Z,72.11
2018-10-17T01:08:55.361Z,71.25
2018-10-17T01:09:55.351Z,70.64
2018-10-17T01:10:55.353Z,71.36
2018-10-17T01:11:55.336Z,71.36
2018-10-17T01:12:55.361Z,71.56
2018-10-17T01:13:55.309Z,72.31
2018-10-17T01:14:55.304Z,72.20
2018-10-17T01:15:55.282Z,72.52
2018-10-17T01:16:55.278Z,73.23
2018-10-17T01:17:55.285Z,72.52
2018-10-17T01:18:55.292Z,72.61
2018-10-17T01:19:55.272Z,72.92
2018-10-17T01:20:55.242Z,73.03
2018-10-17T01:21:55.244Z,72.31
2018-10-17T01:22:55.296Z,72.00
2018-10-17T01:23:55.203Z,72.55
2018-10-17T01:24:55.213Z,73.16
2018-10-17T01:25:55.188Z,74.29
2018-10-17T01:26:55.176Z,74.19
2018-10-17T01:27:55.158Z,73.88
2018-10-17T01:28:55.219Z,73.88
2018-10-17T01:29:55.181Z,73.91
2018-10-17T01:30:55.179Z,73.71
2018-10-17T01:31:55.119Z,74.22
2018-10-17T01:32:55.103Z,74.22
2018-10-17T01:33:55.093Z,74.02
2018-10-17T01:34:55.084Z,74.63
2018-10-17T01:35:55.079Z,74.43
2018-10-17T01:36:55.128Z,74.32
2018-10-17T01:37:55.075Z,73.81
2018-10-17T01:38:55.065Z,74.32
2018-10-17T01:39:55.048Z,73.50
2018-10-17T01:40:55.049Z,74.02
2018-10-17T01:41:55.004Z,73.81
2018-10-17T01:42:55.042Z,74.22
2018-10-17T01:43:54.992Z,73.61
2018-10-17T01:44:54.995Z,74.53
2018-10-17T01:45:54.961Z,74.49
2018-10-17T01:46:55.026Z,74.49
2018-10-17T01:47:54.962Z,74.02
2018-10-17T01:48:54.950Z,74.29
2018-10-17T01:49:54.924Z,74.49
2018-10-17T01:50:54.930Z,74.19
2018-10-17T01:51:54.897Z,73.23
2018-10-17T01:52:54.900Z,73.54
2018-10-17T01:53:54.880Z,73.16
2018-10-17T01:54:54.907Z,73.74
2018-10-17T01:55:54.876Z,73.13
2018-10-17T01:56:54.864Z,73.64
2018-10-17T01:57:54.838Z,73.33
2018-10-17T01:58:54.868Z,73.23
2018-10-17T01:59:54.822Z,73.44
2018-10-17T02:00:54.830Z,73.23
2018-10-17T02:01:55.667Z,73.44
2018-10-17T02:02:54.796Z,73.54
2018-10-17T02:03:54.769Z,72.52
2018-10-17T02:04:54.769Z,73.13
2018-10-17T02:05:54.764Z,72.61
2018-10-17T02:06:54.827Z,72.00
2018-10-17T02:07:54.726Z,71.80
2018-10-17T02:08:54.733Z,72.41
2018-10-17T02:09:54.710Z,72.28
2018-10-17T02:10:54.713Z,71.86
2018-10-17T02:11:54.693Z,72.48
2018-10-17T02:12:54.736Z,71.73
2018-10-17T02:13:54.670Z,72.07
2018-10-17T02:14:54.660Z,71.73
2018-10-17T02:15:54.644Z,71.77
2018-10-17T02:16:54.709Z,71.97
2018-10-17T02:17:54.628Z,71.80
2018-10-17T02:18:54.653Z,71.36
2018-10-17T02:19:54.597Z,71.39
2018-10-17T02:20:54.586Z,71.39
2018-10-17T02:21:54.616Z,72.00
2018-10-17T02:22:54.620Z,71.39
2018-10-17T02:23:54.567Z,71.69
2018-10-17T02:24:54.599Z,71.69
2018-10-17T02:25:54.558Z,72.11
2018-10-17T02:26:54.526Z,71.90
2018-10-17T02:27:54.519Z,71.80
2018-10-17T02:28:54.558Z,72.11
2018-10-17T02:29:54.532Z,72.31
2018-10-17T02:30:54.510Z,71.93
2018-10-17T02:31:54.479Z,71.28
2018-10-17T02:32:54.494Z,70.98
2018-10-17T02:33:54.447Z,71.22
2018-10-17T02:34:54.461Z,71.08
2018-10-17T02:35:54.465Z,71.22
2018-10-17T02:36:54.462Z,71.22
2018-10-17T02:37:54.447Z,71.32
2018-10-17T02:38:54.396Z,71.32
2018-10-17T02:39:54.390Z,72.38
2018-10-17T02:40:54.402Z,72.99
2018-10-17T02:41:54.412Z,73.50
2018-10-17T02:42:54.357Z,73.19
2018-10-17T02:43:54.358Z,73.71
2018-10-17T02:44:54.330Z,73.64
2018-10-17T02:45:54.324Z,73.54
2018-10-17T02:46:54.327Z,73.71
2018-10-17T02:47:54.302Z,73.81
2018-10-17T02:48:54.357Z,73.19
2018-10-17T02:49:54.285Z,73.50
2018-10-17T02:50:54.271Z,73.23
2018-10-17T02:51:54.260Z,73.02
2018-10-17T02:52:54.323Z,74.26
2018-10-17T02:53:54.244Z,74.05
2018-10-17T02:54:54.302Z,74.66
2018-10-17T02:55:54.215Z,74.57
2018-10-17T02:56:54.233Z,74.36
2018-10-17T02:57:54.196Z,74.60
2018-10-17T02:58:54.230Z,74.70
2018-10-17T02:59:54.180Z,75.42
2018-10-17T03:00:54.205Z,75.11
2018-10-17T03:01:54.153Z,75.42
2018-10-17T03:02:54.157Z,76.04
2018-10-17T03:03:54.152Z,75.93
2018-10-17T03:04:54.202Z,75.25
2018-10-17T03:05:54.130Z,75.15
2018-10-17T03:06:54.142Z,75.76
2018-10-17T03:07:54.687Z,76.07
2018-10-17T03:08:54.077Z,75.35
2018-10-17T03:09:54.075Z,75.25
2018-10-17T03:10:54.142Z,75.76
2018-10-17T03:11:54.047Z,75.15
2018-10-17T03:12:54.085Z,74.94
2018-10-17T03:13:54.030Z,74.53
2018-10-17T03:14:54.025Z,75.25
2018-10-17T03:15:54.025Z,75.25
2018-10-17T03:16:53.998Z,74.53
2018-10-17T03:17:53.990Z,74.60
2018-10-17T03:18:54.038Z,74.70
2018-10-17T03:19:53.975Z,74.53
2018-10-17T03:20:53.978Z,74.53
2018-10-17T03:21:53.990Z,74.74
2018-10-17T03:22:53.960Z,74.53
2018-10-17T03:23:53.925Z,75.97
2018-10-17T03:24:53.940Z,75.76
2018-10-17T03:25:53.926Z,75.76
2018-10-17T03:26:53.893Z,76.04
2018-10-17T03:27:54.015Z,76.86
2018-10-17T03:28:53.939Z,76.86
2018-10-17T03:29:53.875Z,76.65
2018-10-17T03:30:53.907Z,76.55
2018-10-17T03:31:53.850Z,76.65
2018-10-17T03:32:53.846Z,76.34
2018-10-17T03:33:53.820Z,76.14
2018-10-17T03:34:53.856Z,76.86
2018-10-17T03:35:53.898Z,75.73
2018-10-17T03:36:53.788Z,75.62
2018-10-17T03:37:53.771Z,75.42
2018-10-17T03:38:53.758Z,75.32
2018-10-17T03:39:53.751Z,75.62
2018-10-17T03:40:53.751Z,75.52
2018-10-17T03:41:53.788Z,75.83
2018-10-17T03:42:53.723Z,75.83
2018-10-17T03:43:53.707Z,75.62
2018-10-17T03:44:53.711Z,75.32
2018-10-17T03:45:53.700Z,75.21
2018-10-17T03:46:53.735Z,75.42
2018-10-17T03:47:53.706Z,75.32
2018-10-17T03:48:53.738Z,75.21
2018-10-17T03:49:53.778Z,75.32
2018-10-17T03:50:53.638Z,74.70
2018-10-17T03:51:53.622Z,74.77
2018-10-17T03:52:53.643Z,74.57
2018-10-17T03:53:53.604Z,74.70
2018-10-17T03:54:53.643Z,74.66
2018-10-17T03:55:53.591Z,75.38
2018-10-17T03:56:53.573Z,75.49
2018-10-17T03:57:53.557Z,73.74
2018-10-17T03:58:53.563Z,74.26
2018-10-17T03:59:53.546Z,73.74
2018-10-17T04:00:53.544Z,74.22
2018-10-17T04:01:53.515Z,73.10
2018-10-17T04:02:53.528Z,73.50
2018-10-17T04:03:53.525Z,73.50
2018-10-17T04:04:53.486Z,73.23
2018-10-17T04:05:53.473Z,73.74
2018-10-17T04:06:53.523Z,73.44
2018-10-17T04:07:53.453Z,73.74
2018-10-17T04:08:53.451Z,73.23
2018-10-17T04:09:53.432Z,73.71
2018-10-17T04:10:53.421Z,73.40
2018-10-17T04:11:53.428Z,73.50
2018-10-17T04:12:53.538Z,72.78
2018-10-17T04:13:53.406Z,73.23
2018-10-17T04:14:53.383Z,73.44
2018-10-17T04:15:53.386Z,74.26
2018-10-17T04:16:53.386Z,73.85
2018-10-17T04:17:53.347Z,73.64
2018-10-17T04:18:53.423Z,74.36
2018-10-17T04:19:53.342Z,74.29
2018-10-17T04:20:53.336Z,74.08
2018-10-17T04:21:53.313Z,73.68
2018-10-17T04:22:53.382Z,74.02
2018-10-17T04:23:53.280Z,74.53
2018-10-17T04:24:53.291Z,74.43
2018-10-17T04:25:53.264Z,75.87
2018-10-17T04:26:53.257Z,76.48
2018-10-17T04:27:53.244Z,76.17
2018-10-17T04:28:53.251Z,76.68
2018-10-17T04:29:53.225Z,77.23
2018-10-17T04:30:53.256Z,77.13
2018-10-17T04:31:53.204Z,77.44
2018-10-17T04:32:53.196Z,77.34
2018-10-17T04:33:53.175Z,76.82
2018-10-17T04:34:53.182Z,76.58
2018-10-17T04:35:53.222Z,77.00
2018-10-17T04:36:53.183Z,76.68
2018-10-17T04:37:53.137Z,76.58
2018-10-17T04:38:53.119Z,77.03
2018-10-17T04:39:53.119Z,76.28
2018-10-17T04:40:53.182Z,76.17
2018-10-17T04:41:53.096Z,76.68
2018-10-17T04:42:53.134Z,76.38
2018-10-17T04:43:53.066Z,76.17
2018-10-17T04:44:53.068Z,75.87
2018-10-17T04:45:53.065Z,75.59
2018-10-17T04:46:53.082Z,75.76
2018-10-17T04:47:53.028Z,75.04
2018-10-17T04:48:53.066Z,75.45
2018-10-17T04:49:53.009Z,75.25
2018-10-17T04:50:53.003Z,74.74
2018-10-17T04:51:53.025Z,74.40
2018-10-17T04:52:52.989Z,74.91
2018-10-17T04:53:52.964Z,74.91
2018-10-17T04:54:52.955Z,74.70
2018-10-17T04:55:52.948Z,74.60
2018-10-17T04:56:52.932Z,74.84
2018-10-17T04:57:52.945Z,75.11
2018-10-17T04:58:52.919Z,75.04
2018-10-17T04:59:52.906Z,75.01
2018-10-17T05:00:52.912Z,75.04
2018-10-17T05:01:52.887Z,75.25
2018-10-17T05:02:52.877Z,74.84
2018-10-17T05:03:52.858Z,75.15
2018-10-17T05:04:52.858Z,75.21
2018-10-17T05:05:52.850Z,75.21
2018-10-17T05:06:52.925Z,75.87
2018-10-17T05:07:52.819Z,75.93
2018-10-17T05:08:52.820Z,75.66
2018-10-17T05:09:52.791Z,75.56
2018-10-17T05:10:52.810Z,75.76
2018-10-17T05:11:52.786Z,74.63
2018-10-17T05:12:52.829Z,75.35
2018-10-17T05:13:52.756Z,75.56
2018-10-17T05:14:52.751Z,75.97
2018-10-17T05:15:52.725Z,75.87
2018-10-17T05:16:52.760Z,76.07
2018-10-17T05:17:52.707Z,76.68
2018-10-17T05:18:52.705Z,76.93
2018-10-17T05:19:52.700Z,77.23
2018-10-17T05:20:52.672Z,76.07
2018-10-17T05:21:52.678Z,75.56
2018-10-17T05:22:52.661Z,75.56
2018-10-17T05:23:52.645Z,75.70
2018-10-17T05:24:52.635Z,75.70
2018-10-17T05:25:52.636Z,75.76
2018-10-17T05:26:52.609Z,75.35
2018-10-17T05:27:52.603Z,75.56
2018-10-17T05:28:52.605Z,75.35
2018-10-17T05:29:52.670Z,75.87
2018-10-17T05:30:52.582Z,75.97
2018-10-17T05:31:52.556Z,75.97
2018-10-17T05:32:52.550Z,75.87
2018-10-17T05:33:52.547Z,75.56
2018-10-17T05:34:52.556Z,75.90
2018-10-17T05:35:52.538Z,75.59
2018-10-17T05:36:52.571Z,76.21
2018-10-17T05:37:52.638Z,75.70
2018-10-17T05:38:52.481Z,75.70
2018-10-17T05:39:52.480Z,76.00
2018-10-17T05:40:52.459Z,76.10
2018-10-17T05:41:52.472Z,76.72
2018-10-17T05:42:52.484Z,76.93
2018-10-17T05:43:52.441Z,76.97
2018-10-17T05:44:52.420Z,76.72
2018-10-17T05:45:52.407Z,75.90
2018-10-17T05:46:52.434Z,75.80
2018-10-17T05:47:52.390Z,76.10
2018-10-17T05:48:52.392Z,76.10
2018-10-17T05:49:52.388Z,76.00
2018-10-17T05:50:52.352Z,75.70
2018-10-17T05:51:52.340Z,75.70
2018-10-17T05:52:52.340Z,76.51
2018-10-17T05:53:52.331Z,76.62
2018-10-17T05:54:52.324Z,77.03
2018-10-17T05:55:52.300Z,76.31
2018-10-17T05:56:52.296Z,76.10
2018-10-17T05:57:52.280Z,75.90
2018-10-17T05:58:52.278Z,76.00
2018-10-17T05:59:52.268Z,75.90
2018-10-17T06:00:52.280Z,75.90
2018-10-17T06:01:52.324Z,76.10
2018-10-17T06:02:52.225Z,76.31
2018-10-17T06:03:52.216Z,76.72
2018-10-17T06:04:52.227Z,76.51
2018-10-17T06:05:52.232Z,75.90
2018-10-17T06:06:52.225Z,75.87
2018-10-17T06:07:52.173Z,74.74
2018-10-17T06:08:52.159Z,74.74
2018-10-17T06:09:52.148Z,74.84
2018-10-17T06:10:52.214Z,75.25
2018-10-17T06:11:52.149Z,74.94
2018-10-17T06:12:52.152Z,75.25
2018-10-17T06:13:52.130Z,75.35
2018-10-17T06:14:52.102Z,75.38
2018-10-17T06:15:52.092Z,75.56
2018-10-17T06:16:52.142Z,75.66
2018-10-17T06:17:52.086Z,76.07
2018-10-17T06:18:52.094Z,75.97
2018-10-17T06:19:52.043Z,75.56
2018-10-17T06:20:52.030Z,75.04
2018-10-17T06:21:52.049Z,74.60
2018-10-17T06:22:52.042Z,73.78
2018-10-17T06:23:52.008Z,74.70
2018-10-17T06:24:52.008Z,74.05
2018-10-17T06:25:52.004Z,73.74
2018-10-17T06:26:51.972Z,73.85
2018-10-17T06:27:51.971Z,74.46
2018-10-17T06:28:52.028Z,73.78
2018-10-17T06:29:51.940Z,73.98
2018-10-17T06:30:52.028Z,74.80
2018-10-17T06:31:51.913Z,75.93
2018-10-17T06:32:51.949Z,75.45
2018-10-17T06:33:51.966Z,75.56
2018-10-17T06:34:52.010Z,75.87
2018-10-17T06:35:51.869Z,76.38
2018-10-17T06:36:51.893Z,76.89
2018-10-17T06:37:51.848Z,76.89
2018-10-17T06:38:51.875Z,77.10
2018-10-17T06:39:51.836Z,76.89
2018-10-17T06:40:51.872Z,76.45
2018-10-17T06:41:51.809Z,77.30
2018-10-17T06:42:51.855Z,77.06
2018-10-17T06:43:51.838Z,76.86
2018-10-17T06:44:51.779Z,77.00
2018-10-17T06:45:51.767Z,77.40
2018-10-17T06:46:51.787Z,77.10
2018-10-17T06:47:51.742Z,77.00
2018-10-17T06:48:51.805Z,77.06
2018-10-17T06:49:51.722Z,77.40
2018-10-17T06:50:51.717Z,77.06
2018-10-17T06:51:51.731Z,77.78
2018-10-17T06:52:51.716Z,77.06
2018-10-17T06:53:51.753Z,77.03
2018-10-17T06:54:51.699Z,77.54
2018-10-17T06:55:51.661Z,77.54
2018-10-17T06:56:51.651Z,77.03
2018-10-17T06:57:51.659Z,77.13
2018-10-17T06:58:51.632Z,77.44
2018-10-17T06:59:51.616Z,77.74
2018-10-17T07:00:51.642Z,77.44
2018-10-17T07:01:51.695Z,77.40
2018-10-17T07:02:51.591Z,77.50
2018-10-17T07:03:51.591Z,77.40
2018-10-17T07:04:51.569Z,77.29
2018-10-17T07:05:51.571Z,77.09
2018-10-17T07:06:51.587Z,76.78
2018-10-17T07:07:51.571Z,76.54
2018-10-17T07:08:51.521Z,77.06
2018-10-17T07:09:51.520Z,76.95
2018-10-17T07:10:51.547Z,76.85
2018-10-17T07:11:51.492Z,76.95
2018-10-17T07:12:51.485Z,76.72
2018-10-17T07:13:51.468Z,76.72
2018-10-17T07:14:51.460Z,76.72
2018-10-17T07:15:51.493Z,76.51
2018-10-17T07:16:51.454Z,76.72
2018-10-17T07:17:51.693Z,76.47
2018-10-17T07:18:51.435Z,76.57
2018-10-17T07:19:51.404Z,76.37
2018-10-17T07:20:51.398Z,76.64
2018-10-17T07:21:51.399Z,76.13
2018-10-17T07:22:51.419Z,76.43
2018-10-17T07:23:51.363Z,76.64
2018-10-17T07:24:51.372Z,76.34
2018-10-17T07:25:51.342Z,76.50
2018-10-17T07:26:51.327Z,76.30
2018-10-17T07:27:51.331Z,76.54
2018-10-17T07:28:51.473Z,75.99
2018-10-17T07:29:51.558Z,76.50
2018-10-17T07:30:51.331Z,76.50
2018-10-17T07:31:51.296Z,75.99
2018-10-17T07:32:51.270Z,75.85
2018-10-17T07:33:51.273Z,75.14
2018-10-17T07:34:51.265Z,75.55
2018-10-17T07:35:51.384Z,75.55
2018-10-17T07:36:51.224Z,75.34
2018-10-17T07:37:51.218Z,75.41
2018-10-17T07:38:51.210Z,75.41
2018-10-17T07:39:51.201Z,74.59
2018-10-17T07:40:51.220Z,73.98
2018-10-17T07:41:51.210Z,74.59
2018-10-17T07:42:51.166Z,74.39
2018-10-17T07:43:51.152Z,75.51
2018-10-17T07:44:51.157Z,75.92
2018-10-17T07:45:51.129Z,74.39
2018-10-17T07:46:51.116Z,73.84
2018-10-17T07:47:51.150Z,74.05
2018-10-17T07:48:51.125Z,74.35
2018-10-17T07:49:51.116Z,74.46
2018-10-17T07:50:51.082Z,75.37
2018-10-17T07:51:51.065Z,75.24
2018-10-17T07:52:51.106Z,75.13
2018-10-17T07:53:51.048Z,75.54
2018-10-17T07:54:51.050Z,74.63
2018-10-17T07:55:51.029Z,75.65
2018-10-17T07:56:51.019Z,74.63
2018-10-17T07:57:51.007Z,74.49
2018-10-17T07:58:50.994Z,74.18
2018-10-17T07:59:51.119Z,73.98
2018-10-17T08:00:50.981Z,73.88
2018-10-17T08:01:50.978Z,74.15
2018-10-17T08:02:50.957Z,73.98
2018-10-17T08:03:50.934Z,74.35
2018-10-17T08:04:50.924Z,75.31
2018-10-17T08:05:50.938Z,75.27
2018-10-17T08:06:50.911Z,75.48
2018-10-17T08:07:50.890Z,74.93
2018-10-17T08:08:50.889Z,74.35
2018-10-17T08:09:50.871Z,74.05
2018-10-17T08:10:50.859Z,73.84
2018-10-17T08:11:50.915Z,75.68
2018-10-17T08:12:50.876Z,74.76
2018-10-17T08:13:50.843Z,75.27
2018-10-17T08:14:50.819Z,74.55
2018-10-17T08:15:50.808Z,74.52
2018-10-17T08:16:50.845Z,72.99
2018-10-17T08:17:50.812Z,72.79
2018-10-17T08:18:50.780Z,72.89
2018-10-17T08:19:50.807Z,72.69
2018-10-17T08:20:50.754Z,71.97
2018-10-17T08:21:50.741Z,72.99
2018-10-17T08:22:50.749Z,72.75
2018-10-17T08:23:50.734Z,72.75
2018-10-17T08:24:50.709Z,72.96
2018-10-17T08:25:50.698Z,71.50
2018-10-17T08:26:50.694Z,70.99
2018-10-17T08:27:50.754Z,70.28
2018-10-17T08:28:50.666Z,70.68
2018-10-17T08:29:50.658Z,70.99
2018-10-17T08:30:50.702Z,70.86
2018-10-17T08:31:50.632Z,71.56
2018-10-17T08:32:50.621Z,71.73
2018-10-17T08:33:50.630Z,71.12
2018-10-17T08:34:50.601Z,70.72
2018-10-17T08:35:50.796Z,69.46
2018-10-17T08:36:50.777Z,69.40
2018-10-17T08:37:51.151Z,70.10
2018-10-17T08:38:50.597Z,69.67
2018-10-17T08:39:50.554Z,69.77
2018-10-17T08:40:50.585Z,69.16
2018-10-17T08:41:50.532Z,69.16
2018-10-17T08:42:50.517Z,69.16
2018-10-17T08:43:50.544Z,69.23
2018-10-17T08:44:50.521Z,69.13
2018-10-17T08:45:50.489Z,69.13
2018-10-17T08:46:50.474Z,67.71
2018-10-17T08:47:50.475Z,68.18
2018-10-17T08:48:50.452Z,67.88
2018-10-17T08:49:50.440Z,66.76
2018-10-17T08:50:50.581Z,67.57
2018-10-17T08:51:50.418Z,67.67
2018-10-17T08:52:50.412Z,66.93
2018-10-17T08:53:50.418Z,67.03
2018-10-17T08:54:50.392Z,66.69
2018-10-17T08:55:50.382Z,65.78
2018-10-17T08:56:50.365Z,65.68
2018-10-17T08:57:50.450Z,65.34
2018-10-17T08:58:50.350Z,64.46
2018-10-17T08:59:54.137Z,64.43
2018-10-17T09:00:50.326Z,65.04
2018-10-17T09:01:50.311Z,65.14
2018-10-17T09:02:50.302Z,65.14
2018-10-17T09:03:50.324Z,64.43
2018-10-17T09:04:50.285Z,64.70
2018-10-17T09:05:50.272Z,64.61
2018-10-17T09:06:50.261Z,64.58
2018-10-17T09:07:50.339Z,62.95
2018-10-17T09:08:50.237Z,63.66
2018-10-17T09:09:50.690Z,62.54
2018-10-17T09:10:50.218Z,61.80
2018-10-17T09:11:50.208Z,61.71
2018-10-17T09:12:50.194Z,61.00
2018-10-17T09:13:50.183Z,61.07
2018-10-17T09:14:50.212Z,61.07
2018-10-17T09:15:50.172Z,60.13
2018-10-17T09:16:50.262Z,61.32
2018-10-17T09:17:50.139Z,60.38
2018-10-17T09:18:50.203Z,60.45
2018-10-17T09:19:50.290Z,59.14
2018-10-17T09:20:50.348Z,58.70
2018-10-17T09:21:50.413Z,57.26
2018-10-17T09:22:50.102Z,56.45
2018-10-17T09:23:50.081Z,55.72
2018-10-17T09:24:50.087Z,54.38
2018-10-17T09:25:50.116Z,53.72
2018-10-17T09:26:50.048Z,53.67
2018-10-17T09:27:50.048Z,51.89
2018-10-17T09:28:50.043Z,50.11
2018-10-17T09:29:50.052Z,47.63
2018-10-17T09:30:50.007Z,47.34
2018-10-17T09:31:49.990Z,44.87
2018-10-17T09:32:49.979Z,42.79
2018-10-17T09:33:49.976Z,40.76
2018-10-17T09:34:49.958Z,40.42
2018-10-17T09:35:50.051Z,39.80
2018-10-17T09:36:49.939Z,38.97
2018-10-17T09:37:49.927Z,38.22
2018-10-17T09:38:49.918Z,36.91
2018-10-17T09:39:49.908Z,37.19
2018-10-17T09:40:49.901Z,35.86
2018-10-17T09:41:49.887Z,35.47
2018-10-17T09:42:49.883Z,35.35
2018-10-17T09:43:49.860Z,35.12
2018-10-17T09:44:49.871Z,34.01
2018-10-17T09:45:49.841Z,33.49
2018-10-17T09:46:49.836Z,31.98
2018-10-17T09:47:49.849Z,32.62
2018-10-17T09:48:49.811Z,32.10
2018-10-17T09:49:49.810Z,30.98
2018-10-17T09:50:49.788Z,31.07
2018-10-17T09:51:49.790Z,30.05
2018-10-17T09:52:49.775Z,29.75
2018-10-17T09:53:49.776Z,28.95
2018-10-17T09:54:49.767Z,28.25
2018-10-17T09:55:49.735Z,29.33
2018-10-17T09:56:49.729Z,27.66
2018-10-17T09:57:49.723Z,28.15
2018-10-17T09:58:49.702Z,27.94
2018-10-17T09:59:49.698Z,27.95
2018-10-17T10:00:49.685Z,28.15
2018-10-17T10:01:49.744Z,27.66
2018-10-17T10:02:49.815Z,27.85
2018-10-17T10:03:49.658Z,27.64
2018-10-17T10:04:49.642Z,27.63
2018-10-17T10:05:49.643Z,27.14
2018-10-17T10:06:49.622Z,26.83
2018-10-17T10:07:49.635Z,26.53
2018-10-17T10:08:49.615Z,26.51
2018-10-17T10:09:49.588Z,26.82
2018-10-17T10:10:49.618Z,26.92
2018-10-17T10:11:49.575Z,26.42
2018-10-17T10:12:49.574Z,26.59
2018-10-17T10:13:49.588Z,26.59
2018-10-17T10:14:49.558Z,27.16
2018-10-17T10:15:49.530Z,26.56
2018-10-17T10:16:49.529Z,26.46
2018-10-17T10:17:49.513Z,26.35
2018-10-17T10:18:49.510Z,25.47
2018-10-17T10:19:49.489Z,26.14
2018-10-17T10:20:49.478Z,26.14
2018-10-17T10:21:49.480Z,25.63
2018-10-17T10:22:49.459Z,25.14
2018-10-17T10:23:49.530Z,24.46
2018-10-17T10:24:49.473Z,24.37
2018-10-17T10:25:49.428Z,24.77
2018-10-17T10:26:49.413Z,24.37
2018-10-17T10:27:49.403Z,24.35
2018-10-17T10:28:49.411Z,24.54
2018-10-17T10:29:49.464Z,24.34
2018-10-17T10:30:49.372Z,24.34
2018-10-17T10:31:49.365Z,25.21
2018-10-17T10:32:49.352Z,25.10
2018-10-17T10:33:49.341Z,24.23
2018-10-17T10:34:49.361Z,24.43
2018-10-17T10:35:49.334Z,24.34
2018-10-17T10:36:49.313Z,25.03
2018-10-17T10:37:49.306Z,25.01
2018-10-17T10:38:49.295Z,24.91
2018-10-17T10:39:49.326Z,24.99
2018-10-17T10:40:49.271Z,24.51
2018-10-17T10:41:49.263Z,23.52
2018-10-17T10:42:49.291Z,24.01
2018-10-17T10:43:49.241Z,23.82
2018-10-17T10:44:49.256Z,24.21
2018-10-17T10:45:49.226Z,24.10
2018-10-17T10:46:49.216Z,23.42
2018-10-17T10:47:49.210Z,24.19
2018-10-17T10:48:49.196Z,23.82
2018-10-17T10:49:49.223Z,23.91
2018-10-17T10:50:49.178Z,24.10
2018-10-17T10:51:49.184Z,23.79
2018-10-17T10:52:49.166Z,23.20
2018-10-17T10:53:49.141Z,23.00
2018-10-17T10:54:49.130Z,22.91
2018-10-17T10:55:49.136Z,23.00
2018-10-17T10:56:49.116Z,23.50
2018-10-17T10:57:49.118Z,23.59
2018-10-17T10:58:49.140Z,23.13
2018-10-17T10:59:49.081Z,23.50
2018-10-17T11:00:49.077Z,23.61
2018-10-17T11:01:49.064Z,23.71
2018-10-17T11:02:49.076Z,23.21
2018-10-17T11:03:49.042Z,23.70
2018-10-17T11:04:49.075Z,23.02
2018-10-17T11:05:49.304Z,23.39
2018-10-17T11:06:49.045Z,23.42
2018-10-17T11:07:49.048Z,23.62
2018-10-17T11:08:48.993Z,23.60
2018-10-17T11:09:48.984Z,23.30
2018-10-17T11:10:48.981Z,23.58
2018-10-17T11:11:49.016Z,23.47
2018-10-17T11:12:48.960Z,23.46
2018-10-17T11:13:48.958Z,22.69
2018-10-17T11:14:49.257Z,23.49
2018-10-17T11:15:48.928Z,23.02
2018-10-17T11:16:48.913Z,23.69
2018-10-17T11:17:48.929Z,23.49
2018-10-17T11:18:48.918Z,23.19
2018-10-17T11:19:48.883Z,23.47
2018-10-17T11:20:48.881Z,23.09
2018-10-17T11:21:48.940Z,23.37
2018-10-17T11:22:48.867Z,23.58
2018-10-17T11:23:48.856Z,23.58
2018-10-17T11:24:48.865Z,23.96
2018-10-17T11:25:48.848Z,23.87
2018-10-17T11:26:48.821Z,23.66
2018-10-17T11:27:48.806Z,23.28
2018-10-17T11:28:48.808Z,23.38
2018-10-17T11:29:48.815Z,23.08
2018-10-17T11:30:48.783Z,23.16
2018-10-17T11:31:48.795Z,22.89
2018-10-17T11:32:48.801Z,23.47
2018-10-17T11:33:48.744Z,22.90
2018-10-17T11:34:48.767Z,23.69
2018-10-17T11:35:48.746Z,24.00
2018-10-17T11:36:48.721Z,23.90
2018-10-17T11:37:48.743Z,23.91
2018-10-17T11:38:48.695Z,23.82
2018-10-17T11:39:48.730Z,23.91
2018-10-17T11:40:48.757Z,24.01
2018-10-17T11:41:48.702Z,24.79
2018-10-17T11:42:48.697Z,24.61
2018-10-17T11:43:48.646Z,24.51
2018-10-17T11:44:48.637Z,24.52
2018-10-17T11:45:48.633Z,24.72
2018-10-17T11:46:48.621Z,24.34
2018-10-17T11:47:48.744Z,25.60
2018-10-17T11:48:48.605Z,25.41
2018-10-17T11:49:48.627Z,25.03
2018-10-17T11:50:48.613Z,25.41
2018-10-17T11:51:48.567Z,24.63
2018-10-17T11:52:48.566Z,25.12
2018-10-17T11:53:48.551Z,24.63
2018-10-17T11:54:48.545Z,24.55
2018-10-17T11:55:48.525Z,24.34
2018-10-17T11:56:48.571Z,24.34
2018-10-17T11:57:48.506Z,24.73
2018-10-17T11:58:48.510Z,25.60
2018-10-17T11:59:48.544Z,24.13
2018-10-17T12:00:48.474Z,24.33
2018-10-17T12:01:48.490Z,25.30
2018-10-17T12:02:48.460Z,25.30
2018-10-17T12:03:48.641Z,24.90
2018-10-17T12:04:48.628Z,24.98
2018-10-17T12:05:48.629Z,23.52
2018-10-17T12:06:48.417Z,23.71
2018-10-17T12:07:48.742Z,23.42
2018-10-17T12:08:48.396Z,24.30
2018-10-17T12:09:48.387Z,23.72
2018-10-17T12:10:48.395Z,23.82
2018-10-17T12:11:48.483Z,24.89
2018-10-17T12:12:48.406Z,24.50
2018-10-17T12:13:48.378Z,24.32
2018-10-17T12:14:48.335Z,24.90
2018-10-17T12:15:48.324Z,24.52
2018-10-17T12:16:48.329Z,23.73
2018-10-17T12:17:48.313Z,24.02
2018-10-17T12:18:48.303Z,23.63
2018-10-17T12:19:48.407Z,24.63
2018-10-17T12:20:48.333Z,24.35
2018-10-17T12:21:48.289Z,25.52
2018-10-17T12:22:48.257Z,25.05
2018-10-17T12:23:48.269Z,25.75
2018-10-17T12:24:48.237Z,26.15
2018-10-17T12:25:48.226Z,24.89
2018-10-17T12:26:48.218Z,25.78
2018-10-17T12:27:48.303Z,26.86
2018-10-17T12:28:48.236Z,26.56
2018-10-17T12:29:48.191Z,26.97
2018-10-17T12:30:48.198Z,26.46
2018-10-17T12:31:48.178Z,27.76
2018-10-17T12:32:48.155Z,27.66
2018-10-17T12:33:48.145Z,27.08
2018-10-17T12:34:48.150Z,27.47
2018-10-17T12:35:48.139Z,27.76
2018-10-17T12:36:48.121Z,26.49
2018-10-17T12:37:48.105Z,26.98
2018-10-17T12:38:48.137Z,27.27
2018-10-17T12:39:48.271Z,26.79
2018-10-17T12:40:48.301Z,26.79
2018-10-17T12:41:48.073Z,26.99
2018-10-17T12:42:48.057Z,25.44
2018-10-17T12:43:48.099Z,26.12
2018-10-17T12:44:48.077Z,26.31
2018-10-17T12:45:48.090Z,26.01
2018-10-17T12:46:48.024Z,25.83
2018-10-17T12:47:48.014Z,26.71
2018-10-17T12:48:47.994Z,26.51
2018-10-17T12:49:48.043Z,26.90
2018-10-17T12:50:47.976Z,26.42
2018-10-17T12:51:47.964Z,26.61
2018-10-17T12:52:48.213Z,26.71